sensor_id;sensor_type;location;lat;lon;timestamp;P1;durP1;ratioP1;P2;durP2;ratioP2
31754;SDS011;18325;52.018;4.726;2022-08-18T00:11:19;8.90;;;6.25;;
31754;SDS011;18325;52.018;4.726;2022-08-18T00:20:43;7.88;;;5.70;;
31754;SDS011;18325;52.018;4.726;2022-08-18T00:29:55;8.48;;;5.90;;
31754;SDS011;18325;52.018;4.726;2022-08-18T00:32:24;7.72;;;6.43;;
31754;SDS011;18325;52.018;4.726;2022-08-18T00:35:04;9.25;;;6.63;;
31754;SDS011;18325;52.018;4.726;2022-08-18T00:37:33;11.73;;;6.13;;
31754;SDS011;18325;52.018;4.726;2022-08-18T00:42:57;7.20;;;5.60;;
31754;SDS011;18325;52.018;4.726;2022-08-18T00:45:29;6.97;;;5.78;;
31754;SDS011;18325;52.018;4.726;2022-08-18T00:47:57;7.95;;;5.68;;
31754;SDS011;18325;52.018;4.726;2022-08-18T00:50:26;10.57;;;6.30;;
31754;SDS011;18325;52.018;4.726;2022-08-18T00:52:54;8.60;;;6.93;;
31754;SDS011;18325;52.018;4.726;2022-08-18T00:55:26;9.05;;;6.38;;
31754;SDS011;18325;52.018;4.726;2022-08-18T00:58:14;10.20;;;6.35;;
31754;SDS011;18325;52.018;4.726;2022-08-18T01:00:49;9.80;;;7.20;;
31754;SDS011;18325;52.018;4.726;2022-08-18T01:03:53;10.80;;;7.40;;
31754;SDS011;18325;52.018;4.726;2022-08-18T01:06:26;12.63;;;8.45;;
31754;SDS011;18325;52.018;4.726;2022-08-18T01:09:32;10.77;;;7.22;;
31754;SDS011;18325;52.018;4.726;2022-08-18T01:11:59;12.45;;;8.13;;
31754;SDS011;18325;52.018;4.726;2022-08-18T01:14:28;10.25;;;8.07;;
31754;SDS011;18325;52.018;4.726;2022-08-18T01:16:56;11.55;;;8.07;;
31754;SDS011;18325;52.018;4.726;2022-08-18T01:19:46;11.95;;;8.57;;
31754;SDS011;18325;52.018;4.726;2022-08-18T01:22:34;12.25;;;8.60;;
31754;SDS011;18325;52.018;4.726;2022-08-18T01:25:15;14.20;;;9.35;;
31754;SDS011;18325;52.018;4.726;2022-08-18T01:28:00;12.40;;;8.68;;
31754;SDS011;18325;52.018;4.726;2022-08-18T01:30:29;10.27;;;7.45;;
31754;SDS011;18325;52.018;4.726;2022-08-18T01:33:11;13.02;;;7.45;;
31754;SDS011;18325;52.018;4.726;2022-08-18T01:35:37;11.25;;;6.95;;
31754;SDS011;18325;52.018;4.726;2022-08-18T01:38:05;11.02;;;7.35;;
31754;SDS011;18325;52.018;4.726;2022-08-18T01:40:33;14.57;;;7.38;;
31754;SDS011;18325;52.018;4.726;2022-08-18T01:43:12;10.07;;;7.28;;
31754;SDS011;18325;52.018;4.726;2022-08-18T01:45:42;8.43;;;6.90;;
31754;SDS011;18325;52.018;4.726;2022-08-18T01:48:09;8.38;;;6.82;;
31754;SDS011;18325;52.018;4.726;2022-08-18T01:53:45;10.85;;;7.43;;
31754;SDS011;18325;52.018;4.726;2022-08-18T01:56:30;10.32;;;7.10;;
31754;SDS011;18325;52.018;4.726;2022-08-18T01:58:57;10.45;;;7.18;;
31754;SDS011;18325;52.018;4.726;2022-08-18T02:01:24;12.18;;;7.65;;
31754;SDS011;18325;52.018;4.726;2022-08-18T02:03:53;13.50;;;7.30;;
31754;SDS011;18325;52.018;4.726;2022-08-18T02:06:21;11.63;;;7.22;;
31754;SDS011;18325;52.018;4.726;2022-08-18T02:08:47;9.07;;;6.97;;
31754;SDS011;18325;52.018;4.726;2022-08-18T02:11:14;9.02;;;7.38;;
31754;SDS011;18325;52.018;4.726;2022-08-18T02:13:48;8.73;;;6.32;;
31754;SDS011;18325;52.018;4.726;2022-08-18T02:16:15;10.50;;;8.05;;
31754;SDS011;18325;52.018;4.726;2022-08-18T02:18:42;11.05;;;7.40;;
31754;SDS011;18325;52.018;4.726;2022-08-18T02:21:09;10.00;;;7.75;;
31754;SDS011;18325;52.018;4.726;2022-08-18T02:23:39;10.97;;;7.43;;
31754;SDS011;18325;52.018;4.726;2022-08-18T02:26:07;13.40;;;7.55;;
31754;SDS011;18325;52.018;4.726;2022-08-18T02:54:20;11.20;;;8.77;;
31754;SDS011;18325;52.018;4.726;2022-08-18T02:57:17;13.13;;;9.57;;
31754;SDS011;18325;52.018;4.726;2022-08-18T02:59:46;13.68;;;9.98;;
31754;SDS011;18325;52.018;4.726;2022-08-18T03:02:21;14.00;;;10.85;;
31754;SDS011;18325;52.018;4.726;2022-08-18T03:04:48;13.00;;;9.38;;
31754;SDS011;18325;52.018;4.726;2022-08-18T03:07:15;14.50;;;10.63;;
31754;SDS011;18325;52.018;4.726;2022-08-18T03:09:43;14.82;;;10.35;;
31754;SDS011;18325;52.018;4.726;2022-08-18T03:12:10;13.40;;;10.25;;
31754;SDS011;18325;52.018;4.726;2022-08-18T03:14:37;14.57;;;11.00;;
31754;SDS011;18325;52.018;4.726;2022-08-18T03:17:05;14.95;;;10.70;;
31754;SDS011;18325;52.018;4.726;2022-08-18T03:19:33;15.13;;;11.55;;
31754;SDS011;18325;52.018;4.726;2022-08-18T03:22:00;16.95;;;11.80;;
31754;SDS011;18325;52.018;4.726;2022-08-18T03:24:27;15.25;;;11.25;;
31754;SDS011;18325;52.018;4.726;2022-08-18T03:26:55;18.25;;;12.07;;
31754;SDS011;18325;52.018;4.726;2022-08-18T03:29:36;15.88;;;11.15;;
31754;SDS011;18325;52.018;4.726;2022-08-18T03:32:12;17.63;;;11.93;;
31754;SDS011;18325;52.018;4.726;2022-08-18T03:34:38;18.48;;;11.13;;
31754;SDS011;18325;52.018;4.726;2022-08-18T03:37:06;15.05;;;11.60;;
31754;SDS011;18325;52.018;4.726;2022-08-18T03:39:33;14.27;;;11.20;;
31754;SDS011;18325;52.018;4.726;2022-08-18T03:42:04;15.23;;;10.82;;
31754;SDS011;18325;52.018;4.726;2022-08-18T03:47:19;15.07;;;11.38;;
31754;SDS011;18325;52.018;4.726;2022-08-18T03:49:45;16.00;;;11.10;;
31754;SDS011;18325;52.018;4.726;2022-08-18T03:52:31;15.02;;;10.57;;
31754;SDS011;18325;52.018;4.726;2022-08-18T03:54:58;16.02;;;10.15;;
31754;SDS011;18325;52.018;4.726;2022-08-18T03:57:26;13.00;;;10.40;;
31754;SDS011;18325;52.018;4.726;2022-08-18T03:59:57;11.85;;;9.40;;
31754;SDS011;18325;52.018;4.726;2022-08-18T04:02:24;11.48;;;9.10;;
31754;SDS011;18325;52.018;4.726;2022-08-18T04:04:58;15.38;;;9.35;;
31754;SDS011;18325;52.018;4.726;2022-08-18T04:07:27;13.10;;;9.35;;
31754;SDS011;18325;52.018;4.726;2022-08-18T04:09:54;12.07;;;9.15;;
31754;SDS011;18325;52.018;4.726;2022-08-18T04:12:40;15.23;;;9.23;;
31754;SDS011;18325;52.018;4.726;2022-08-18T04:15:07;13.45;;;8.63;;
31754;SDS011;18325;52.018;4.726;2022-08-18T04:17:40;14.35;;;9.43;;
31754;SDS011;18325;52.018;4.726;2022-08-18T04:20:07;14.73;;;8.55;;
31754;SDS011;18325;52.018;4.726;2022-08-18T04:22:37;11.93;;;8.27;;
31754;SDS011;18325;52.018;4.726;2022-08-18T04:25:04;12.25;;;8.23;;
31754;SDS011;18325;52.018;4.726;2022-08-18T04:27:33;12.63;;;9.30;;
31754;SDS011;18325;52.018;4.726;2022-08-18T04:30:01;11.50;;;8.23;;
31754;SDS011;18325;52.018;4.726;2022-08-18T04:32:36;12.32;;;7.95;;
31754;SDS011;18325;52.018;4.726;2022-08-18T04:35:03;12.07;;;8.13;;
31754;SDS011;18325;52.018;4.726;2022-08-18T04:40:35;12.18;;;8.43;;
31754;SDS011;18325;52.018;4.726;2022-08-18T04:43:01;15.13;;;8.00;;
31754;SDS011;18325;52.018;4.726;2022-08-18T04:45:39;13.63;;;8.32;;
31754;SDS011;18325;52.018;4.726;2022-08-18T04:48:05;11.55;;;7.88;;
31754;SDS011;18325;52.018;4.726;2022-08-18T04:50:32;12.60;;;8.10;;
31754;SDS011;18325;52.018;4.726;2022-08-18T04:56:05;12.70;;;7.68;;
31754;SDS011;18325;52.018;4.726;2022-08-18T05:04:42;10.75;;;6.25;;
31754;SDS011;18325;52.018;4.726;2022-08-18T05:07:11;8.68;;;7.03;;
31754;SDS011;18325;52.018;4.726;2022-08-18T05:09:38;9.52;;;7.15;;
31754;SDS011;18325;52.018;4.726;2022-08-18T05:12:21;9.38;;;7.35;;
31754;SDS011;18325;52.018;4.726;2022-08-18T05:14:47;9.88;;;6.75;;
31754;SDS011;18325;52.018;4.726;2022-08-18T05:17:16;8.35;;;6.82;;
31754;SDS011;18325;52.018;4.726;2022-08-18T05:19:43;10.07;;;7.00;;
31754;SDS011;18325;52.018;4.726;2022-08-18T05:22:10;10.93;;;6.93;;
31754;SDS011;18325;52.018;4.726;2022-08-18T05:24:42;11.27;;;6.93;;
31754;SDS011;18325;52.018;4.726;2022-08-18T05:30:31;13.57;;;6.82;;
31754;SDS011;18325;52.018;4.726;2022-08-18T05:32:57;9.48;;;7.15;;
31754;SDS011;18325;52.018;4.726;2022-08-18T05:38:28;8.45;;;6.30;;
31754;SDS011;18325;52.018;4.726;2022-08-18T05:44:18;9.80;;;6.45;;
31754;SDS011;18325;52.018;4.726;2022-08-18T05:46:48;9.95;;;6.40;;
31754;SDS011;18325;52.018;4.726;2022-08-18T05:49:33;8.43;;;5.68;;
31754;SDS011;18325;52.018;4.726;2022-08-18T05:52:05;7.65;;;6.00;;
31754;SDS011;18325;52.018;4.726;2022-08-18T05:54:35;13.40;;;6.70;;
31754;SDS011;18325;52.018;4.726;2022-08-18T05:57:22;10.93;;;6.38;;
31754;SDS011;18325;52.018;4.726;2022-08-18T06:03:12;8.13;;;5.65;;
31754;SDS011;18325;52.018;4.726;2022-08-18T06:05:43;9.35;;;6.70;;
31754;SDS011;18325;52.018;4.726;2022-08-18T06:14:49;9.38;;;6.32;;
31754;SDS011;18325;52.018;4.726;2022-08-18T06:17:30;9.82;;;6.18;;
31754;SDS011;18325;52.018;4.726;2022-08-18T06:21:11;8.60;;;5.93;;
31754;SDS011;18325;52.018;4.726;2022-08-18T06:30:25;8.65;;;5.72;;
31754;SDS011;18325;52.018;4.726;2022-08-18T06:33:01;9.07;;;6.43;;
31754;SDS011;18325;52.018;4.726;2022-08-18T06:39:01;9.32;;;6.15;;
31754;SDS011;18325;52.018;4.726;2022-08-18T06:44:52;7.57;;;4.85;;
31754;SDS011;18325;52.018;4.726;2022-08-18T06:47:50;7.32;;;5.35;;
31754;SDS011;18325;52.018;4.726;2022-08-18T06:50:26;7.57;;;5.00;;
31754;SDS011;18325;52.018;4.726;2022-08-18T06:52:56;8.27;;;6.03;;
31754;SDS011;18325;52.018;4.726;2022-08-18T06:55:35;7.45;;;6.05;;
31754;SDS011;18325;52.018;4.726;2022-08-18T06:58:03;7.57;;;5.72;;
31754;SDS011;18325;52.018;4.726;2022-08-18T07:00:32;7.82;;;5.47;;
31754;SDS011;18325;52.018;4.726;2022-08-18T07:03:13;8.57;;;5.30;;
31754;SDS011;18325;52.018;4.726;2022-08-18T07:05:55;10.73;;;7.55;;
31754;SDS011;18325;52.018;4.726;2022-08-18T07:08:27;14.00;;;8.80;;
31754;SDS011;18325;52.018;4.726;2022-08-18T07:11:09;12.85;;;8.30;;
31754;SDS011;18325;52.018;4.726;2022-08-18T07:13:38;9.13;;;6.45;;
31754;SDS011;18325;52.018;4.726;2022-08-18T07:16:14;8.23;;;6.30;;
31754;SDS011;18325;52.018;4.726;2022-08-18T07:18:44;10.65;;;5.90;;
31754;SDS011;18325;52.018;4.726;2022-08-18T07:21:10;7.05;;;5.65;;
31754;SDS011;18325;52.018;4.726;2022-08-18T07:23:56;7.35;;;5.93;;
31754;SDS011;18325;52.018;4.726;2022-08-18T07:26:24;10.25;;;6.50;;
31754;SDS011;18325;52.018;4.726;2022-08-18T07:32:13;6.13;;;5.32;;
31754;SDS011;18325;52.018;4.726;2022-08-18T07:34:45;5.53;;;4.80;;
31754;SDS011;18325;52.018;4.726;2022-08-18T07:37:16;5.65;;;4.20;;
31754;SDS011;18325;52.018;4.726;2022-08-18T07:39:48;7.13;;;4.78;;
31754;SDS011;18325;52.018;4.726;2022-08-18T07:42:20;8.35;;;4.22;;
31754;SDS011;18325;52.018;4.726;2022-08-18T07:44:52;9.80;;;4.43;;
31754;SDS011;18325;52.018;4.726;2022-08-18T07:47:22;7.45;;;4.28;;
31754;SDS011;18325;52.018;4.726;2022-08-18T07:49:54;5.93;;;4.32;;
31754;SDS011;18325;52.018;4.726;2022-08-18T07:52:24;15.07;;;9.88;;
31754;SDS011;18325;52.018;4.726;2022-08-18T07:54:55;5.75;;;4.20;;
31754;SDS011;18325;52.018;4.726;2022-08-18T07:57:30;7.63;;;4.65;;
31754;SDS011;18325;52.018;4.726;2022-08-18T08:00:04;4.15;;;3.45;;
31754;SDS011;18325;52.018;4.726;2022-08-18T08:02:39;4.43;;;3.58;;
31754;SDS011;18325;52.018;4.726;2022-08-18T08:05:19;4.05;;;3.40;;
31754;SDS011;18325;52.018;4.726;2022-08-18T08:07:57;7.63;;;3.47;;
31754;SDS011;18325;52.018;4.726;2022-08-18T08:10:34;6.15;;;4.00;;
31754;SDS011;18325;52.018;4.726;2022-08-18T08:16:07;5.28;;;2.67;;
31754;SDS011;18325;52.018;4.726;2022-08-18T08:18:53;3.58;;;3.28;;
31754;SDS011;18325;52.018;4.726;2022-08-18T08:21:48;4.50;;;2.92;;
31754;SDS011;18325;52.018;4.726;2022-08-18T08:27:37;4.75;;;3.13;;
31754;SDS011;18325;52.018;4.726;2022-08-18T08:30:29;4.75;;;3.08;;
31754;SDS011;18325;52.018;4.726;2022-08-18T08:33:02;3.10;;;2.80;;
31754;SDS011;18325;52.018;4.726;2022-08-18T08:35:45;4.82;;;2.63;;
31754;SDS011;18325;52.018;4.726;2022-08-18T08:38:21;2.88;;;2.67;;
31754;SDS011;18325;52.018;4.726;2022-08-18T08:41:12;3.60;;;2.92;;
31754;SDS011;18325;52.018;4.726;2022-08-18T08:43:59;3.45;;;2.58;;
31754;SDS011;18325;52.018;4.726;2022-08-18T08:46:41;4.03;;;2.97;;
31754;SDS011;18325;52.018;4.726;2022-08-18T08:49:21;3.33;;;2.50;;
31754;SDS011;18325;52.018;4.726;2022-08-18T08:51:53;2.67;;;2.47;;
31754;SDS011;18325;52.018;4.726;2022-08-18T08:54:24;7.22;;;4.57;;
31754;SDS011;18325;52.018;4.726;2022-08-18T08:57:05;3.10;;;2.60;;
31754;SDS011;18325;52.018;4.726;2022-08-18T08:59:32;4.18;;;2.75;;
31754;SDS011;18325;52.018;4.726;2022-08-18T09:02:05;4.10;;;2.47;;
31754;SDS011;18325;52.018;4.726;2022-08-18T09:04:54;4.82;;;2.83;;
31754;SDS011;18325;52.018;4.726;2022-08-18T09:07:32;4.90;;;2.50;;
31754;SDS011;18325;52.018;4.726;2022-08-18T09:10:22;2.42;;;1.90;;
31754;SDS011;18325;52.018;4.726;2022-08-18T09:13:20;2.83;;;2.30;;
31754;SDS011;18325;52.018;4.726;2022-08-18T09:16:03;2.15;;;1.90;;
31754;SDS011;18325;52.018;4.726;2022-08-18T09:18:39;3.17;;;2.03;;
31754;SDS011;18325;52.018;4.726;2022-08-18T09:21:16;3.25;;;2.55;;
31754;SDS011;18325;52.018;4.726;2022-08-18T09:24:01;7.95;;;2.97;;
31754;SDS011;18325;52.018;4.726;2022-08-18T09:26:42;2.17;;;1.98;;
31754;SDS011;18325;52.018;4.726;2022-08-18T09:29:13;2.85;;;2.35;;
31754;SDS011;18325;52.018;4.726;2022-08-18T09:31:47;3.47;;;2.70;;
31754;SDS011;18325;52.018;4.726;2022-08-18T09:34:24;9.82;;;2.53;;
31754;SDS011;18325;52.018;4.726;2022-08-18T09:37:00;2.65;;;2.45;;
31754;SDS011;18325;52.018;4.726;2022-08-18T09:39:31;2.30;;;2.10;;
31754;SDS011;18325;52.018;4.726;2022-08-18T09:42:25;3.63;;;2.90;;
31754;SDS011;18325;52.018;4.726;2022-08-18T09:44:56;4.93;;;3.13;;
31754;SDS011;18325;52.018;4.726;2022-08-18T09:53:35;7.80;;;5.35;;
31754;SDS011;18325;52.018;4.726;2022-08-18T10:05:25;4.47;;;4.07;;
31754;SDS011;18325;52.018;4.726;2022-08-18T10:07:52;5.28;;;3.90;;
31754;SDS011;18325;52.018;4.726;2022-08-18T10:13:57;11.40;;;8.20;;
31754;SDS011;18325;52.018;4.726;2022-08-18T10:16:34;3.88;;;3.20;;
31754;SDS011;18325;52.018;4.726;2022-08-18T10:19:21;4.40;;;4.00;;
31754;SDS011;18325;52.018;4.726;2022-08-18T10:22:04;4.43;;;4.03;;
31754;SDS011;18325;52.018;4.726;2022-08-18T10:27:34;10.30;;;3.47;;
31754;SDS011;18325;52.018;4.726;2022-08-18T10:33:14;2.60;;;2.40;;
31754;SDS011;18325;52.018;4.726;2022-08-18T10:36:31;3.92;;;2.40;;
31754;SDS011;18325;52.018;4.726;2022-08-18T10:39:02;2.15;;;1.95;;
31754;SDS011;18325;52.018;4.726;2022-08-18T10:41:30;2.45;;;2.25;;
31754;SDS011;18325;52.018;4.726;2022-08-18T10:43:57;2.08;;;1.88;;
31754;SDS011;18325;52.018;4.726;2022-08-18T10:46:25;3.63;;;2.40;;
31754;SDS011;18325;52.018;4.726;2022-08-18T10:48:59;1.77;;;1.67;;
31754;SDS011;18325;52.018;4.726;2022-08-18T10:51:35;2.28;;;1.85;;
31754;SDS011;18325;52.018;4.726;2022-08-18T10:54:14;2.45;;;1.90;;
31754;SDS011;18325;52.018;4.726;2022-08-18T10:56:45;2.28;;;1.90;;
31754;SDS011;18325;52.018;4.726;2022-08-18T10:59:17;4.55;;;1.90;;
31754;SDS011;18325;52.018;4.726;2022-08-18T11:02:00;3.30;;;1.52;;
31754;SDS011;18325;52.018;4.726;2022-08-18T11:04:41;2.22;;;1.80;;
31754;SDS011;18325;52.018;4.726;2022-08-18T11:07:12;1.85;;;1.58;;
31754;SDS011;18325;52.018;4.726;2022-08-18T11:09:40;1.58;;;1.48;;
31754;SDS011;18325;52.018;4.726;2022-08-18T11:12:07;1.85;;;1.63;;
31754;SDS011;18325;52.018;4.726;2022-08-18T11:17:24;16.55;;;11.40;;
31754;SDS011;18325;52.018;4.726;2022-08-18T11:20:03;3.65;;;3.25;;
31754;SDS011;18325;52.018;4.726;2022-08-18T11:22:33;3.53;;;2.47;;
31754;SDS011;18325;52.018;4.726;2022-08-18T11:25:01;2.60;;;2.20;;
31754;SDS011;18325;52.018;4.726;2022-08-18T11:27:39;2.50;;;2.30;;
31754;SDS011;18325;52.018;4.726;2022-08-18T11:30:11;2.72;;;2.17;;
31754;SDS011;18325;52.018;4.726;2022-08-18T11:32:38;2.30;;;2.10;;
31754;SDS011;18325;52.018;4.726;2022-08-18T11:35:10;2.95;;;2.65;;
31754;SDS011;18325;52.018;4.726;2022-08-18T11:37:42;2.72;;;2.50;;
31754;SDS011;18325;52.018;4.726;2022-08-18T11:40:11;3.78;;;2.28;;
31754;SDS011;18325;52.018;4.726;2022-08-18T11:42:49;6.90;;;2.65;;
31754;SDS011;18325;52.018;4.726;2022-08-18T11:45:20;2.65;;;2.45;;
31754;SDS011;18325;52.018;4.726;2022-08-18T11:50:47;3.92;;;2.65;;
31754;SDS011;18325;52.018;4.726;2022-08-18T11:53:15;5.47;;;3.00;;
31754;SDS011;18325;52.018;4.726;2022-08-18T11:56:03;2.55;;;2.35;;
31754;SDS011;18325;52.018;4.726;2022-08-18T11:58:44;3.47;;;2.38;;
31754;SDS011;18325;52.018;4.726;2022-08-18T12:03:56;3.70;;;3.17;;
31754;SDS011;18325;52.018;4.726;2022-08-18T12:06:25;5.32;;;3.83;;
31754;SDS011;18325;52.018;4.726;2022-08-18T12:08:56;3.42;;;3.13;;
31754;SDS011;18325;52.018;4.726;2022-08-18T12:14:21;5.68;;;4.00;;
31754;SDS011;18325;52.018;4.726;2022-08-18T12:16:48;5.35;;;4.15;;
31754;SDS011;18325;52.018;4.726;2022-08-18T12:19:20;4.65;;;4.25;;
31754;SDS011;18325;52.018;4.726;2022-08-18T12:21:54;3.40;;;3.10;;
31754;SDS011;18325;52.018;4.726;2022-08-18T12:24:22;3.90;;;3.50;;
31754;SDS011;18325;52.018;4.726;2022-08-18T12:27:05;4.70;;;3.45;;
31754;SDS011;18325;52.018;4.726;2022-08-18T12:29:31;5.05;;;3.17;;
31754;SDS011;18325;52.018;4.726;2022-08-18T12:31:58;4.53;;;3.30;;
31754;SDS011;18325;52.018;4.726;2022-08-18T12:34:30;4.85;;;3.88;;
31754;SDS011;18325;52.018;4.726;2022-08-18T12:36:58;4.85;;;4.20;;
31754;SDS011;18325;52.018;4.726;2022-08-18T12:39:26;4.93;;;4.15;;
31754;SDS011;18325;52.018;4.726;2022-08-18T12:42:10;5.10;;;3.38;;
31754;SDS011;18325;52.018;4.726;2022-08-18T12:44:38;4.07;;;3.67;;
31754;SDS011;18325;52.018;4.726;2022-08-18T12:47:08;5.55;;;3.28;;
31754;SDS011;18325;52.018;4.726;2022-08-18T12:49:37;6.07;;;4.30;;
31754;SDS011;18325;52.018;4.726;2022-08-18T12:52:05;4.85;;;3.75;;
31754;SDS011;18325;52.018;4.726;2022-08-18T12:54:32;12.82;;;4.93;;
31754;SDS011;18325;52.018;4.726;2022-08-18T12:57:00;6.80;;;3.83;;
31754;SDS011;18325;52.018;4.726;2022-08-18T12:59:28;4.22;;;3.20;;
31754;SDS011;18325;52.018;4.726;2022-08-18T13:01:55;4.30;;;3.30;;
31754;SDS011;18325;52.018;4.726;2022-08-18T13:07:29;4.43;;;2.95;;
31754;SDS011;18325;52.018;4.726;2022-08-18T13:09:56;6.32;;;3.10;;
31754;SDS011;18325;52.018;4.726;2022-08-18T13:12:23;2.95;;;2.65;;
31754;SDS011;18325;52.018;4.726;2022-08-18T13:14:50;4.05;;;2.78;;
31754;SDS011;18325;52.018;4.726;2022-08-18T13:17:37;3.15;;;2.83;;
31754;SDS011;18325;52.018;4.726;2022-08-18T13:20:04;7.53;;;2.85;;
31754;SDS011;18325;52.018;4.726;2022-08-18T13:22:35;3.53;;;2.45;;
31754;SDS011;18325;52.018;4.726;2022-08-18T13:27:52;3.55;;;2.97;;
31754;SDS011;18325;52.018;4.726;2022-08-18T13:30:20;18.80;;;13.05;;
31754;SDS011;18325;52.018;4.726;2022-08-18T13:32:50;4.03;;;2.85;;
31754;SDS011;18325;52.018;4.726;2022-08-18T13:35:31;6.15;;;3.00;;
31754;SDS011;18325;52.018;4.726;2022-08-18T13:37:59;2.65;;;2.08;;
31754;SDS011;18325;52.018;4.726;2022-08-18T13:40:25;3.25;;;2.20;;
31754;SDS011;18325;52.018;4.726;2022-08-18T13:42:52;3.45;;;2.00;;
31754;SDS011;18325;52.018;4.726;2022-08-18T13:45:19;3.42;;;2.38;;
31754;SDS011;18325;52.018;4.726;2022-08-18T13:47:47;3.85;;;2.35;;
31754;SDS011;18325;52.018;4.726;2022-08-18T13:50:14;2.95;;;2.20;;
31754;SDS011;18325;52.018;4.726;2022-08-18T13:52:52;3.72;;;3.17;;
31754;SDS011;18325;52.018;4.726;2022-08-18T13:55:23;4.75;;;2.47;;
31754;SDS011;18325;52.018;4.726;2022-08-18T13:58:03;2.63;;;2.20;;
31754;SDS011;18325;52.018;4.726;2022-08-18T14:00:32;3.40;;;2.60;;
31754;SDS011;18325;52.018;4.726;2022-08-18T14:02:59;4.65;;;2.55;;
31754;SDS011;18325;52.018;4.726;2022-08-18T14:05:26;2.83;;;2.25;;
31754;SDS011;18325;52.018;4.726;2022-08-18T14:07:59;3.75;;;2.50;;
31754;SDS011;18325;52.018;4.726;2022-08-18T14:10:27;2.22;;;2.03;;
31754;SDS011;18325;52.018;4.726;2022-08-18T14:12:55;2.72;;;2.53;;
31754;SDS011;18325;52.018;4.726;2022-08-18T14:15:46;2.40;;;2.20;;
31754;SDS011;18325;52.018;4.726;2022-08-18T14:18:13;2.47;;;2.28;;
31754;SDS011;18325;52.018;4.726;2022-08-18T14:20:40;2.10;;;2.00;;
31754;SDS011;18325;52.018;4.726;2022-08-18T14:26:31;2.72;;;2.15;;
31754;SDS011;18325;52.018;4.726;2022-08-18T14:29:13;2.47;;;2.28;;
31754;SDS011;18325;52.018;4.726;2022-08-18T14:31:40;2.03;;;1.83;;
31754;SDS011;18325;52.018;4.726;2022-08-18T14:34:31;3.25;;;2.22;;
31754;SDS011;18325;52.018;4.726;2022-08-18T14:37:21;2.38;;;2.17;;
31754;SDS011;18325;52.018;4.726;2022-08-18T14:39:48;2.47;;;2.13;;
31754;SDS011;18325;52.018;4.726;2022-08-18T14:42:17;3.38;;;1.83;;
31754;SDS011;18325;52.018;4.726;2022-08-18T14:44:45;4.05;;;2.10;;
31754;SDS011;18325;52.018;4.726;2022-08-18T14:47:11;12.02;;;9.07;;
31754;SDS011;18325;52.018;4.726;2022-08-18T14:49:38;3.35;;;3.05;;
31754;SDS011;18325;52.018;4.726;2022-08-18T14:52:05;4.60;;;2.60;;
31754;SDS011;18325;52.018;4.726;2022-08-18T14:54:32;3.15;;;2.20;;
31754;SDS011;18325;52.018;4.726;2022-08-18T14:57:00;2.40;;;2.20;;
31754;SDS011;18325;52.018;4.726;2022-08-18T14:59:29;3.78;;;2.10;;
31754;SDS011;18325;52.018;4.726;2022-08-18T15:01:56;5.00;;;2.65;;
31754;SDS011;18325;52.018;4.726;2022-08-18T15:04:23;3.30;;;2.53;;
31754;SDS011;18325;52.018;4.726;2022-08-18T15:06:51;2.70;;;2.20;;
31754;SDS011;18325;52.018;4.726;2022-08-18T15:09:21;3.00;;;1.92;;
31754;SDS011;18325;52.018;4.726;2022-08-18T15:11:48;2.88;;;2.28;;
31754;SDS011;18325;52.018;4.726;2022-08-18T15:14:15;3.28;;;2.33;;
31754;SDS011;18325;52.018;4.726;2022-08-18T15:16:43;3.13;;;2.60;;
31754;SDS011;18325;52.018;4.726;2022-08-18T15:19:11;9.20;;;4.97;;
31754;SDS011;18325;52.018;4.726;2022-08-18T15:21:37;8.82;;;4.90;;
31754;SDS011;18325;52.018;4.726;2022-08-18T15:24:22;9.18;;;3.33;;
31754;SDS011;18325;52.018;4.726;2022-08-18T15:27:06;3.85;;;2.70;;
31754;SDS011;18325;52.018;4.726;2022-08-18T15:29:32;4.43;;;2.45;;
31754;SDS011;18325;52.018;4.726;2022-08-18T15:32:01;3.78;;;2.58;;
31754;SDS011;18325;52.018;4.726;2022-08-18T15:34:27;4.57;;;2.20;;
31754;SDS011;18325;52.018;4.726;2022-08-18T15:36:54;5.28;;;2.65;;
31754;SDS011;18325;52.018;4.726;2022-08-18T15:39:21;5.03;;;2.83;;
31754;SDS011;18325;52.018;4.726;2022-08-18T15:41:50;6.72;;;2.90;;
31754;SDS011;18325;52.018;4.726;2022-08-18T15:44:18;3.78;;;2.60;;
31754;SDS011;18325;52.018;4.726;2022-08-18T15:46:49;3.08;;;2.22;;
31754;SDS011;18325;52.018;4.726;2022-08-18T15:49:31;4.00;;;2.35;;
31754;SDS011;18325;52.018;4.726;2022-08-18T15:52:00;2.50;;;2.28;;
31754;SDS011;18325;52.018;4.726;2022-08-18T15:54:29;6.63;;;3.00;;
31754;SDS011;18325;52.018;4.726;2022-08-18T15:56:55;5.00;;;2.53;;
31754;SDS011;18325;52.018;4.726;2022-08-18T16:02:23;4.45;;;2.72;;
31754;SDS011;18325;52.018;4.726;2022-08-18T16:04:51;2.88;;;2.50;;
31754;SDS011;18325;52.018;4.726;2022-08-18T16:07:22;5.00;;;2.70;;
31754;SDS011;18325;52.018;4.726;2022-08-18T16:09:49;4.70;;;2.90;;
31754;SDS011;18325;52.018;4.726;2022-08-18T16:12:19;4.45;;;2.97;;
31754;SDS011;18325;52.018;4.726;2022-08-18T16:15:12;8.68;;;5.50;;
31754;SDS011;18325;52.018;4.726;2022-08-18T16:17:41;11.07;;;6.22;;
31754;SDS011;18325;52.018;4.726;2022-08-18T16:20:10;8.32;;;5.22;;
31754;SDS011;18325;52.018;4.726;2022-08-18T16:22:37;4.07;;;3.20;;
31754;SDS011;18325;52.018;4.726;2022-08-18T16:25:11;3.58;;;3.00;;
31754;SDS011;18325;52.018;4.726;2022-08-18T16:27:40;3.50;;;2.53;;
31754;SDS011;18325;52.018;4.726;2022-08-18T16:30:07;5.55;;;2.60;;
31754;SDS011;18325;52.018;4.726;2022-08-18T16:32:58;7.18;;;3.03;;
31754;SDS011;18325;52.018;4.726;2022-08-18T16:35:26;5.97;;;3.08;;
31754;SDS011;18325;52.018;4.726;2022-08-18T16:37:53;4.32;;;2.78;;
31754;SDS011;18325;52.018;4.726;2022-08-18T16:40:37;4.28;;;2.63;;
31754;SDS011;18325;52.018;4.726;2022-08-18T16:43:05;3.50;;;2.55;;
31754;SDS011;18325;52.018;4.726;2022-08-18T16:45:33;2.97;;;2.75;;
31754;SDS011;18325;52.018;4.726;2022-08-18T16:48:02;3.70;;;2.60;;
31754;SDS011;18325;52.018;4.726;2022-08-18T16:50:33;7.30;;;2.78;;
31754;SDS011;18325;52.018;4.726;2022-08-18T16:53:01;3.05;;;2.17;;
31754;SDS011;18325;52.018;4.726;2022-08-18T16:55:36;5.55;;;2.75;;
31754;SDS011;18325;52.018;4.726;2022-08-18T16:58:05;6.63;;;3.00;;
31754;SDS011;18325;52.018;4.726;2022-08-18T17:00:50;2.53;;;2.33;;
31754;SDS011;18325;52.018;4.726;2022-08-18T17:03:33;4.18;;;2.40;;
31754;SDS011;18325;52.018;4.726;2022-08-18T17:06:19;3.85;;;2.67;;
31754;SDS011;18325;52.018;4.726;2022-08-18T17:08:46;3.10;;;2.55;;
31754;SDS011;18325;52.018;4.726;2022-08-18T17:11:15;3.78;;;2.63;;
31754;SDS011;18325;52.018;4.726;2022-08-18T17:13:43;4.07;;;2.60;;
31754;SDS011;18325;52.018;4.726;2022-08-18T17:16:11;4.80;;;2.60;;
31754;SDS011;18325;52.018;4.726;2022-08-18T17:18:41;3.55;;;2.22;;
31754;SDS011;18325;52.018;4.726;2022-08-18T17:21:09;4.43;;;2.63;;
31754;SDS011;18325;52.018;4.726;2022-08-18T17:23:38;3.08;;;2.30;;
31754;SDS011;18325;52.018;4.726;2022-08-18T17:26:19;3.17;;;2.60;;
31754;SDS011;18325;52.018;4.726;2022-08-18T17:28:53;3.25;;;2.40;;
31754;SDS011;18325;52.018;4.726;2022-08-18T17:31:23;5.22;;;2.67;;
31754;SDS011;18325;52.018;4.726;2022-08-18T17:33:50;3.35;;;2.60;;
31754;SDS011;18325;52.018;4.726;2022-08-18T17:36:20;4.10;;;2.60;;
31754;SDS011;18325;52.018;4.726;2022-08-18T17:38:50;3.63;;;2.75;;
31754;SDS011;18325;52.018;4.726;2022-08-18T17:41:21;6.70;;;2.92;;
31754;SDS011;18325;52.018;4.726;2022-08-18T17:43:49;4.00;;;3.00;;
31754;SDS011;18325;52.018;4.726;2022-08-18T17:46:16;3.58;;;2.67;;
31754;SDS011;18325;52.018;4.726;2022-08-18T17:48:52;4.07;;;2.95;;
31754;SDS011;18325;52.018;4.726;2022-08-18T17:51:21;2.75;;;2.15;;
31754;SDS011;18325;52.018;4.726;2022-08-18T17:54:01;2.72;;;2.53;;
31754;SDS011;18325;52.018;4.726;2022-08-18T17:56:48;4.55;;;2.85;;
31754;SDS011;18325;52.018;4.726;2022-08-18T17:59:19;4.80;;;2.95;;